Terminal Aerodrome Forecast
Issued by NWS

Home | Current Version | Previous Version | Text Only | Print | Product List | Glossary On
Versions: 1 2 3 4 5 6 7 8 9 10 11 12 13 14 15
827
FTUS42 KMLB 202337
TAFSUA
TAF
KSUA 202337Z 2100/2124 07011KT P6SM SCT050 BKN250
     FM210500 08007KT P6SM BKN050 OVC100
     FM211200 10008KT P6SM VCSH BKN040 OVC080
     FM211500 12011KT 5SM -RA BKN035 OVC050
      TEMPO 2116/2120 3SM RA BR BKN020 OVC040
     FM212200 11006KT 5SM -RA BR SCT030 OVC050=

USA.gov is the U.S. government's official web portal to all federal, state and local government web resources and services.